createdAt,value
2023-06-11T02:27:53.889Z,2.50
2023-06-11T02:30:21.803Z,2.20
2023-06-11T02:32:49.629Z,1.90
2023-06-11T02:35:17.359Z,1.90
2023-06-11T02:37:45.264Z,1.90
2023-06-11T02:40:13.412Z,2.00
2023-06-11T02:42:41.274Z,2.17
2023-06-11T02:45:09.852Z,2.28
2023-06-11T02:47:37.942Z,2.20
2023-06-11T02:50:06.417Z,1.98
2023-06-11T02:52:34.135Z,1.77
2023-06-11T02:55:01.917Z,1.73
2023-06-11T02:57:30.718Z,2.13
2023-06-11T02:59:58.449Z,1.80
2023-06-11T03:02:26.335Z,1.88
2023-06-11T03:04:54.204Z,1.55
2023-06-11T03:07:23.421Z,1.70
2023-06-11T03:09:51.172Z,2.00
2023-06-11T03:12:19.096Z,1.33
2023-06-11T03:14:47.075Z,1.77
2023-06-11T03:17:14.804Z,1.88
2023-06-11T03:19:42.787Z,1.70
2023-06-11T03:22:11.874Z,1.77
2023-06-11T03:24:39.871Z,2.10
2023-06-11T03:27:20.748Z,2.00
2023-06-11T03:29:48.471Z,1.70
2023-06-11T03:32:16.496Z,2.00
2023-06-11T03:34:47.163Z,2.20
2023-06-11T03:37:15.385Z,2.30
2023-06-11T03:39:44.424Z,2.00
2023-06-11T03:42:12.522Z,1.88
2023-06-11T03:44:40.869Z,1.75
2023-06-11T03:47:11.756Z,1.90
2023-06-11T03:49:39.636Z,2.08
2023-06-11T03:52:07.980Z,1.55
2023-06-11T03:54:35.850Z,1.92
2023-06-11T03:57:04.286Z,1.83
2023-06-11T03:59:32.300Z,2.20
2023-06-11T04:02:01.879Z,1.75
2023-06-11T04:04:30.138Z,1.80
2023-06-11T04:06:57.958Z,2.30
2023-06-11T04:09:26.230Z,2.05
2023-06-11T04:11:54.286Z,1.70
2023-06-11T04:14:22.322Z,2.10
2023-06-11T04:16:50.869Z,2.05
2023-06-11T04:19:19.541Z,1.80
2023-06-11T04:21:48.250Z,1.70
2023-06-11T04:24:16.784Z,1.80
2023-06-11T04:26:47.824Z,1.88
2023-06-11T04:29:17.130Z,1.88
2023-06-11T04:31:51.763Z,1.85
2023-06-11T04:34:22.285Z,1.65
2023-06-11T04:36:54.815Z,2.28
2023-06-11T04:39:23.525Z,1.38
2023-06-11T04:41:52.852Z,1.67
2023-06-11T04:44:22.077Z,1.60
2023-06-11T04:46:53.844Z,2.00
2023-06-11T04:49:22.852Z,1.80
2023-06-11T04:51:55.645Z,1.70
2023-06-11T04:54:25.591Z,1.60
2023-06-11T04:56:53.425Z,1.75
2023-06-11T04:59:21.377Z,2.03
2023-06-11T05:01:51.982Z,2.00
2023-06-11T05:04:23.036Z,1.73
2023-06-11T05:06:50.875Z,1.60
2023-06-11T05:09:23.435Z,1.90
2023-06-11T05:11:52.291Z,1.98
2023-06-11T05:14:22.050Z,1.65
2023-06-11T05:16:52.243Z,1.80
2023-06-11T05:19:23.241Z,2.20
2023-06-11T05:21:52.167Z,1.58
2023-06-11T05:24:21.726Z,4.07
2023-06-11T05:27:00.042Z,22.70
2023-06-11T05:29:31.486Z,38.58
2023-06-11T05:31:59.325Z,40.60
2023-06-11T05:34:27.486Z,41.15
2023-06-11T05:36:59.661Z,42.42
2023-06-11T05:39:28.012Z,39.53
2023-06-11T05:41:56.005Z,39.42
2023-06-11T05:44:24.807Z,39.40
2023-06-11T05:46:53.008Z,11.02
2023-06-11T05:49:21.129Z,31.40
2023-06-11T05:51:49.208Z,29.90
2023-06-11T05:54:17.530Z,29.48
2023-06-11T05:56:46.500Z,29.80
2023-06-11T05:59:15.392Z,28.80
2023-06-11T06:01:46.583Z,28.58
2023-06-11T06:04:17.764Z,27.95
2023-06-11T06:06:46.519Z,27.85
2023-06-11T06:09:15.700Z,27.15
2023-06-11T06:11:44.958Z,26.23
2023-06-11T06:14:12.906Z,25.52
2023-06-11T06:16:41.834Z,25.42
2023-06-11T06:19:14.668Z,25.85
2023-06-11T06:21:42.927Z,25.17
2023-06-11T06:24:12.471Z,23.33
2023-06-11T06:26:42.301Z,23.35
2023-06-11T06:29:14.854Z,22.50
2023-06-11T06:31:43.274Z,23.10
2023-06-11T06:34:11.663Z,22.13
2023-06-11T06:36:40.318Z,22.20
2023-06-11T06:39:09.579Z,21.85
2023-06-11T06:41:39.099Z,21.90
2023-06-11T06:44:12.027Z,21.52
2023-06-11T06:46:40.284Z,20.77
2023-06-11T06:49:08.097Z,20.08
2023-06-11T06:51:38.146Z,19.30
2023-06-11T06:54:07.418Z,18.40
2023-06-11T06:56:36.485Z,18.90
2023-06-11T06:59:06.290Z,18.55
2023-06-11T07:01:36.081Z,18.08
2023-06-11T07:04:05.077Z,18.30
2023-06-11T07:06:33.834Z,17.45
2023-06-11T07:09:04.588Z,17.23
2023-06-11T07:11:33.018Z,16.83
2023-06-11T07:14:01.526Z,16.80
2023-06-11T07:16:30.444Z,16.92
2023-06-11T07:19:02.193Z,15.70
2023-06-11T07:21:30.871Z,17.00
2023-06-11T07:24:00.340Z,6.40
2023-06-11T07:26:28.350Z,5.93
2023-06-11T07:28:57.741Z,8.95
2023-06-11T07:31:28.325Z,10.07
2023-06-11T07:33:57.222Z,9.40
2023-06-11T07:36:24.961Z,9.90
2023-06-11T07:38:52.794Z,9.10
2023-06-11T07:41:21.307Z,9.25
2023-06-11T07:43:49.191Z,9.55
2023-06-11T07:46:17.720Z,9.60
2023-06-11T07:48:46.448Z,9.18
2023-06-11T07:51:19.160Z,8.80
2023-06-11T07:53:51.098Z,9.60
2023-06-11T07:56:18.988Z,8.65
2023-06-11T07:58:46.925Z,9.20
2023-06-11T08:01:14.635Z,9.90
2023-06-11T08:03:43.486Z,9.68
2023-06-11T08:06:11.521Z,9.35
2023-06-11T08:08:39.422Z,9.10
2023-06-11T08:11:07.447Z,9.70
2023-06-11T08:13:36.143Z,8.95
2023-06-11T08:16:05.115Z,6.22
2023-06-11T08:18:33.050Z,5.35
2023-06-11T08:21:02.171Z,6.07
2023-06-11T08:23:30.024Z,6.00
2023-06-11T08:26:00.229Z,6.63
2023-06-11T08:28:31.426Z,6.55
2023-06-11T08:30:59.446Z,7.10
2023-06-11T08:33:27.260Z,6.45
2023-06-11T08:35:55.224Z,6.28
2023-06-11T08:38:23.009Z,6.45
2023-06-11T08:40:50.961Z,6.40
2023-06-11T08:43:19.020Z,6.57
2023-06-11T08:45:47.234Z,6.40
2023-06-11T08:48:15.981Z,6.40
2023-06-11T08:50:44.615Z,6.20
2023-06-11T08:53:14.159Z,6.57
2023-06-11T08:55:42.454Z,6.72
2023-06-11T08:58:11.206Z,6.88
2023-06-11T09:00:39.279Z,6.05
2023-06-11T09:03:09.462Z,6.88
2023-06-11T09:05:37.683Z,7.10
2023-06-11T09:08:11.677Z,5.75
2023-06-11T09:10:50.341Z,6.97
2023-06-11T09:13:19.044Z,6.10
2023-06-11T09:15:48.748Z,6.25
2023-06-11T09:18:27.520Z,6.70
2023-06-11T09:20:56.618Z,6.30
2023-06-11T09:23:32.469Z,6.30
2023-06-11T09:26:01.615Z,6.15
2023-06-11T09:28:33.977Z,5.88
2023-06-11T09:31:03.574Z,6.38
2023-06-11T09:33:32.790Z,5.90
2023-06-11T09:36:00.955Z,6.07
2023-06-11T09:38:29.287Z,6.15
2023-06-11T09:40:58.470Z,5.70
2023-06-11T09:43:26.759Z,6.00
2023-06-11T09:45:56.568Z,6.30
2023-06-11T09:48:25.328Z,5.80
2023-06-11T09:50:54.294Z,5.90
2023-06-11T09:53:24.092Z,5.82
2023-06-11T09:58:24.470Z,5.63
2023-06-11T10:00:54.128Z,6.45
2023-06-11T10:03:22.181Z,5.50
2023-06-11T10:05:50.040Z,5.65
2023-06-11T10:08:26.385Z,5.53
2023-06-11T10:11:02.790Z,5.30
2023-06-11T10:13:32.633Z,5.97
2023-06-11T10:16:05.685Z,5.75
2023-06-11T10:18:33.720Z,5.55
2023-06-11T10:21:03.167Z,5.28
2023-06-11T10:23:42.370Z,5.47
2023-06-11T10:26:11.614Z,5.40
2023-06-11T10:28:50.699Z,5.53
2023-06-11T10:31:27.898Z,5.65
2023-06-11T10:34:03.520Z,5.13
2023-06-11T10:36:37.047Z,5.78
2023-06-11T10:39:12.844Z,5.18
2023-06-11T10:41:41.940Z,5.07
2023-06-11T10:44:11.669Z,5.30
2023-06-11T10:46:55.705Z,5.22
2023-06-11T10:49:26.679Z,4.70
2023-06-11T10:51:54.937Z,5.47
2023-06-11T10:54:29.072Z,5.25
2023-06-11T10:56:57.632Z,5.70
2023-06-11T10:59:25.445Z,5.88
2023-06-11T11:01:57.428Z,5.47
2023-06-11T11:04:25.532Z,5.15
2023-06-11T11:07:05.223Z,5.40
2023-06-11T11:09:33.033Z,4.88
2023-06-11T11:12:01.166Z,5.00
2023-06-11T11:14:31.014Z,5.15
2023-06-11T11:17:02.597Z,4.50
2023-06-11T11:19:31.633Z,4.50
2023-06-11T11:21:59.439Z,4.70
2023-06-11T11:24:27.192Z,4.55
2023-06-11T11:26:55.093Z,4.40
2023-06-11T11:29:22.808Z,4.47
2023-06-11T11:31:50.845Z,4.35
2023-06-11T11:34:19.604Z,4.20
2023-06-11T11:36:47.479Z,4.60
2023-06-11T11:39:16.216Z,4.55
2023-06-11T11:41:50.850Z,4.55
2023-06-11T11:44:19.154Z,5.05
2023-06-11T11:46:47.159Z,4.07
2023-06-11T11:49:15.149Z,4.45
2023-06-11T11:51:52.617Z,4.43
2023-06-11T11:54:21.923Z,4.60
2023-06-11T11:56:58.706Z,4.50
2023-06-11T11:59:29.159Z,3.65
2023-06-11T12:01:58.629Z,4.07
2023-06-11T12:04:39.342Z,4.30
2023-06-11T12:07:08.800Z,4.40
2023-06-11T12:09:39.566Z,3.90
2023-06-11T12:12:08.678Z,4.10
2023-06-11T12:14:36.528Z,4.53
2023-06-11T12:17:05.439Z,4.45
2023-06-11T12:19:34.485Z,4.28
2023-06-11T12:22:02.252Z,4.03
2023-06-11T12:24:30.670Z,4.28
2023-06-11T12:26:58.596Z,3.85
2023-06-11T12:29:26.627Z,4.07
2023-06-11T12:31:54.580Z,3.70
2023-06-11T12:34:22.586Z,3.97
2023-06-11T12:36:52.385Z,3.38
2023-06-11T12:39:20.342Z,4.05
2023-06-11T12:41:49.182Z,3.63
2023-06-11T12:44:17.299Z,4.43
2023-06-11T12:46:45.390Z,3.30
2023-06-11T12:49:13.434Z,3.38
2023-06-11T12:51:45.258Z,3.80
2023-06-11T12:54:13.852Z,3.50
2023-06-11T12:56:41.600Z,3.53
2023-06-11T12:59:09.510Z,3.58
2023-06-11T13:01:37.543Z,3.30
2023-06-11T13:04:05.591Z,3.47
2023-06-11T13:06:33.506Z,3.38
2023-06-11T13:09:01.442Z,3.83
2023-06-11T13:11:29.385Z,3.03
2023-06-11T13:13:57.378Z,3.67
2023-06-11T13:16:25.510Z,3.17
2023-06-11T13:18:53.880Z,3.38
2023-06-11T13:21:22.860Z,3.80
2023-06-11T13:23:50.802Z,3.00
2023-06-11T13:26:18.975Z,3.60
2023-06-11T13:28:48.157Z,3.20
2023-06-11T13:31:17.073Z,3.35
2023-06-11T13:33:44.996Z,3.42
2023-06-11T13:36:12.899Z,3.17
2023-06-11T13:38:42.094Z,3.25
2023-06-11T13:41:10.206Z,3.33
2023-06-11T13:43:38.008Z,3.13
2023-06-11T13:46:05.796Z,3.47
2023-06-11T13:48:34.028Z,3.45
2023-06-11T13:51:01.940Z,3.63
2023-06-11T13:53:29.944Z,3.05
2023-06-11T13:55:57.833Z,3.03
2023-06-11T13:58:26.277Z,3.90
2023-06-11T14:00:54.980Z,3.38
2023-06-11T14:03:23.256Z,3.10
2023-06-11T14:05:50.996Z,3.78
2023-06-11T14:08:19.231Z,3.20
2023-06-11T14:10:48.168Z,3.55
2023-06-11T14:13:16.028Z,3.10
2023-06-11T14:15:44.012Z,3.47
2023-06-11T14:18:12.204Z,3.17
2023-06-11T14:20:40.385Z,3.28
2023-06-11T14:23:08.226Z,3.22
2023-06-11T14:25:35.936Z,3.15
2023-06-11T14:28:03.803Z,3.03
2023-06-11T14:30:31.738Z,3.20
2023-06-11T14:32:59.645Z,3.25
2023-06-11T14:35:27.806Z,3.13
2023-06-11T14:37:58.733Z,3.00
2023-06-11T14:40:27.226Z,3.20
2023-06-11T14:42:54.995Z,3.08
2023-06-11T14:45:22.871Z,3.00
2023-06-11T14:47:50.964Z,2.90
2023-06-11T14:50:19.001Z,3.28
2023-06-11T14:52:48.448Z,3.03
2023-06-11T14:55:16.315Z,3.40
2023-06-11T14:57:44.190Z,3.10
2023-06-11T15:00:12.863Z,3.15
2023-06-11T15:02:40.853Z,3.35
2023-06-11T15:05:09.087Z,3.30
2023-06-11T15:07:36.908Z,3.25
2023-06-11T15:10:05.538Z,2.80
2023-06-11T15:12:33.721Z,2.90
2023-06-11T15:15:02.290Z,3.08
2023-06-11T15:17:33.368Z,3.40
2023-06-11T15:20:01.720Z,3.28
2023-06-11T15:22:29.649Z,2.72
2023-06-11T15:24:57.403Z,2.95
2023-06-11T15:27:25.287Z,3.53
2023-06-11T15:29:53.069Z,3.20
2023-06-11T15:32:21.485Z,3.10
2023-06-11T15:34:49.491Z,2.92
2023-06-11T15:37:18.258Z,3.22
2023-06-11T15:39:52.743Z,3.30
2023-06-11T15:42:21.248Z,2.92
2023-06-11T15:44:53.813Z,3.03
2023-06-11T15:47:21.833Z,2.95
2023-06-11T15:49:50.316Z,3.05
2023-06-11T15:52:18.190Z,2.88
2023-06-11T15:54:46.097Z,2.80
2023-06-11T15:57:13.992Z,3.00
2023-06-11T15:59:41.908Z,3.00
2023-06-11T16:02:09.725Z,3.05
2023-06-11T16:04:37.556Z,2.78
2023-06-11T16:07:08.120Z,3.13
2023-06-11T16:09:36.715Z,3.35
2023-06-11T16:12:05.249Z,3.20
2023-06-11T16:14:34.490Z,3.20
2023-06-11T16:17:03.025Z,3.20
2023-06-11T16:19:30.988Z,3.03
2023-06-11T16:21:58.848Z,2.75
2023-06-11T16:24:27.045Z,3.47
2023-06-11T16:26:54.850Z,3.28
2023-06-11T16:29:23.282Z,3.38
2023-06-11T16:31:51.121Z,2.90
2023-06-11T16:34:19.093Z,2.83
2023-06-11T16:36:46.954Z,3.22
2023-06-11T16:39:25.683Z,3.28
2023-06-11T16:41:56.366Z,3.58
2023-06-11T16:44:24.453Z,7.22
2023-06-11T16:46:52.999Z,8.02
2023-06-11T16:49:21.340Z,7.88
2023-06-11T16:51:49.496Z,7.45
2023-06-11T16:54:19.009Z,7.55
2023-06-11T16:56:47.226Z,4.55
2023-06-11T16:59:14.976Z,3.35
2023-06-11T17:01:43.192Z,3.50
2023-06-11T17:04:11.773Z,3.75
2023-06-11T17:06:39.843Z,4.20
2023-06-11T17:09:07.593Z,4.32
2023-06-11T17:11:35.755Z,3.70
2023-06-11T17:14:03.975Z,4.32
2023-06-11T17:16:32.022Z,3.70
2023-06-11T17:18:59.881Z,4.32
2023-06-11T17:21:27.666Z,3.63
2023-06-11T17:23:58.460Z,3.80
2023-06-11T17:26:28.470Z,4.20
2023-06-11T17:28:56.581Z,3.83
2023-06-11T17:31:24.595Z,3.50
2023-06-11T17:33:52.578Z,3.72
2023-06-11T17:36:20.441Z,3.53
2023-06-11T17:38:48.175Z,3.60
2023-06-11T17:41:16.277Z,3.30
2023-06-11T17:43:44.056Z,3.88
2023-06-11T17:46:13.549Z,3.42
2023-06-11T17:48:41.459Z,3.83
2023-06-11T17:51:09.308Z,3.53
2023-06-11T17:53:37.061Z,3.70
2023-06-11T17:56:05.045Z,3.80
2023-06-11T17:58:33.176Z,3.40
2023-06-11T18:01:01.094Z,3.28
2023-06-11T18:03:28.833Z,3.78
2023-06-11T18:05:56.725Z,4.03
2023-06-11T18:08:24.721Z,3.85
2023-06-11T18:10:52.766Z,3.80
2023-06-11T18:13:20.555Z,4.70
2023-06-11T18:15:48.559Z,4.47
2023-06-11T18:18:18.098Z,4.50
2023-06-11T18:20:46.319Z,3.80
2023-06-11T18:23:14.294Z,4.40
2023-06-11T18:25:42.347Z,3.85
2023-06-11T18:28:10.428Z,4.40
2023-06-11T18:30:38.316Z,3.75
2023-06-11T18:33:06.373Z,3.95
2023-06-11T18:35:34.376Z,3.45
2023-06-11T18:38:02.367Z,3.70
2023-06-11T18:40:30.395Z,3.42
2023-06-11T18:42:58.353Z,3.58
2023-06-11T18:45:26.151Z,3.67
2023-06-11T18:47:54.003Z,3.80
2023-06-11T18:50:21.848Z,3.75
